Time;durP1;ratioP1;P1;durP2;ratioP2;P2;SDS_P1;SDS_P2;PMS_P1;PMS_P2;Temp;Humidity;BMP_temperature;BMP_pressure;BME280_temperature;BME280_humidity;BME280_pressure;Samples;Min_cycle;Max_cycle;Signal;HPM_P1;HPM_P2
2023/06/14 00:00:56;;;;;;;3.10;2.07;;;13.60;99.90;;;;;;5202899;28;20178;-44
2023/06/14 00:03:27;;;;;;;5.50;2.23;;;13.60;99.90;;;;;;5184897;28;20190;-44
2023/06/14 00:05:57;;;;;;;4.53;2.50;;;13.60;99.90;;;;;;5202682;28;20471;-45
2023/06/14 00:08:28;;;;;;;3.43;2.33;;;13.50;99.90;;;;;;5202862;28;20212;-45
2023/06/14 00:10:58;;;;;;;1.90;1.80;;;13.40;99.90;;;;;;5204021;28;20188;-44
2023/06/14 00:13:29;;;;;;;2.00;1.80;;;13.40;99.90;;;;;;5202471;28;20187;-44
2023/06/14 00:16:00;;;;;;;4.53;2.63;;;13.40;99.90;;;;;;5185907;28;20210;-45
2023/06/14 00:18:30;;;;;;;2.27;2.17;;;13.30;99.90;;;;;;5204400;28;20587;-44
2023/06/14 00:21:03;;;;;;;5.40;2.07;;;13.30;99.90;;;;;;5180206;28;20192;-44
2023/06/14 00:23:34;;;;;;;1.97;1.87;;;13.30;99.90;;;;;;5205762;28;20188;-45
2023/06/14 00:26:05;;;;;;;3.13;2.40;;;13.30;99.90;;;;;;5184297;28;20489;-44
2023/06/14 00:28:35;;;;;;;2.30;2.10;;;13.30;99.90;;;;;;5197356;28;20195;-44
2023/06/14 00:31:06;;;;;;;4.00;2.70;;;13.30;99.90;;;;;;5200754;28;20179;-44
2023/06/14 00:33:36;;;;;;;2.90;2.70;;;13.30;99.90;;;;;;5206319;28;20282;-44
2023/06/14 00:36:07;;;;;;;1.93;1.83;;;13.20;99.90;;;;;;5188589;28;20188;-45
2023/06/14 00:38:38;;;;;;;9.07;2.50;;;13.20;99.90;;;;;;5171265;28;20211;-44
2023/06/14 00:41:09;;;;;;;2.03;2.03;;;13.10;99.90;;;;;;5203223;28;20188;-44
2023/06/14 00:43:40;;;;;;;4.53;2.70;;;13.10;99.90;;;;;;5189508;28;20275;-44
2023/06/14 00:46:13;;;;;;;2.37;2.27;;;13.10;99.90;;;;;;5204192;28;20242;-44
2023/06/14 00:48:43;;;;;;;2.87;2.67;;;13.00;99.90;;;;;;5184875;28;20945;-44
2023/06/14 00:51:14;;;;;;;3.00;2.80;;;13.00;99.90;;;;;;5186394;28;20251;-45
2023/06/14 00:53:48;;;;;;;3.27;2.77;;;13.00;99.90;;;;;;5169816;28;20192;-44
2023/06/14 00:56:20;;;;;;;2.47;2.37;;;13.00;99.90;;;;;;5205296;28;20557;-45
2023/06/14 00:58:51;;;;;;;4.10;2.97;;;13.00;99.90;;;;;;5202876;28;20509;-43
2023/06/14 01:01:23;;;;;;;10.40;3.00;;;13.00;99.90;;;;;;5205637;28;20441;-44
2023/06/14 01:03:55;;;;;;;7.80;4.07;;;13.00;99.90;;;;;;5205599;28;20524;-45
2023/06/14 01:06:44;;;;;;;2.93;2.80;;;13.10;99.90;;;;;;5202530;28;20477;-44
2023/06/14 01:09:23;;;;;;;3.67;3.47;;;13.10;99.90;;;;;;5208230;28;20644;-44
2023/06/14 01:12:11;;;;;;;3.07;2.87;;;13.00;99.90;;;;;;5186943;28;20710;-45
2023/06/14 01:14:42;;;;;;;3.00;2.80;;;13.00;99.90;;;;;;5202758;28;20460;-44
2023/06/14 01:17:16;;;;;;;5.17;3.40;;;13.00;99.90;;;;;;5171123;28;20541;-43
2023/06/14 01:19:47;;;;;;;3.53;3.30;;;12.90;99.90;;;;;;5193485;28;20210;-43
2023/06/14 01:22:17;;;;;;;3.03;2.80;;;12.90;99.90;;;;;;5214771;28;20501;-43
2023/06/14 01:24:49;;;;;;;2.73;2.63;;;12.90;99.90;;;;;;5199081;28;20687;-43
2023/06/14 01:27:21;;;;;;;13.20;3.33;;;12.90;99.90;;;;;;5197757;28;20200;-43
2023/06/14 01:29:56;;;;;;;3.23;3.03;;;12.90;99.90;;;;;;5212862;28;20942;-43
2023/06/14 01:32:27;;;;;;;4.30;3.10;;;12.90;99.90;;;;;;5197836;28;20492;-43
2023/06/14 01:34:59;;;;;;;4.07;3.47;;;12.90;99.90;;;;;;5214664;28;20437;-42
2023/06/14 01:37:30;;;;;;;3.27;3.07;;;12.90;99.90;;;;;;5197542;28;20482;-43
2023/06/14 01:40:06;;;;;;;3.37;3.07;;;12.90;99.90;;;;;;5214046;28;20438;-43
2023/06/14 01:42:38;;;;;;;3.57;3.03;;;12.90;99.90;;;;;;5195119;28;20450;-44
2023/06/14 01:45:10;;;;;;;7.30;3.77;;;12.80;99.90;;;;;;5210274;28;20463;-44
2023/06/14 01:47:41;;;;;;;4.40;3.50;;;12.80;99.90;;;;;;5202090;28;20466;-42
2023/06/14 01:50:12;;;;;;;4.37;3.80;;;12.80;99.90;;;;;;5189963;28;20504;-43
2023/06/14 01:52:44;;;;;;;3.37;3.17;;;12.80;99.90;;;;;;5202093;28;20435;-43
2023/06/14 01:55:17;;;;;;;4.73;3.70;;;12.70;99.90;;;;;;5201685;28;20448;-43
2023/06/14 01:57:48;;;;;;;5.50;4.20;;;12.70;99.90;;;;;;5188832;28;20849;-43
2023/06/14 02:00:21;;;;;;;4.23;4.00;;;12.70;99.90;;;;;;5204567;28;20520;-43
2023/06/14 02:02:51;;;;;;;7.73;4.37;;;12.60;99.90;;;;;;5203436;28;20180;-43
2023/06/14 02:05:22;;;;;;;4.20;3.90;;;12.60;99.90;;;;;;5205148;28;20540;-43
2023/06/14 02:07:53;;;;;;;4.17;3.87;;;12.60;99.90;;;;;;5205987;28;20207;-44
2023/06/14 02:10:23;;;;;;;4.57;4.17;;;12.50;99.90;;;;;;5184284;28;20179;-44
2023/06/14 02:12:54;;;;;;;7.93;4.13;;;12.50;99.90;;;;;;5204180;28;20231;-44
2023/06/14 02:15:33;;;;;;;4.50;4.10;;;12.50;99.90;;;;;;5209779;28;20297;-44
2023/06/14 02:18:05;;;;;;;4.13;3.83;;;12.40;99.90;;;;;;5189102;28;20234;-44
2023/06/14 02:20:35;;;;;;;4.70;4.30;;;12.40;99.90;;;;;;5204931;28;20452;-44
2023/06/14 02:23:07;;;;;;;5.73;4.57;;;12.40;99.90;;;;;;5206023;28;20450;-44
2023/06/14 02:25:40;;;;;;;4.37;3.97;;;12.40;99.90;;;;;;5185839;28;20222;-45
2023/06/14 02:28:10;;;;;;;3.87;3.67;;;12.40;99.90;;;;;;5186498;28;20454;-43
2023/06/14 02:30:41;;;;;;;4.43;4.10;;;12.40;99.90;;;;;;5201507;28;20600;-43
2023/06/14 02:33:12;;;;;;;4.10;3.80;;;12.30;99.90;;;;;;5202519;28;20180;-43
2023/06/14 02:35:43;;;;;;;13.73;4.67;;;12.30;99.90;;;;;;5201031;28;20172;-43
2023/06/14 02:38:14;;;;;;;5.43;4.90;;;12.30;99.90;;;;;;5171739;28;20496;-43
2023/06/14 02:40:44;;;;;;;5.40;4.77;;;12.30;99.90;;;;;;5201940;28;20184;-44
2023/06/14 02:43:17;;;;;;;6.33;4.23;;;12.20;99.90;;;;;;5201429;28;20179;-44
2023/06/14 02:45:48;;;;;;;22.63;5.50;;;12.20;99.90;;;;;;5201737;28;20222;-43
2023/06/14 02:48:18;;;;;;;6.20;4.93;;;12.10;99.90;;;;;;5201776;28;20451;-44
2023/06/14 02:50:49;;;;;;;9.43;4.90;;;12.10;99.90;;;;;;5202639;28;20189;-43
2023/06/14 02:53:20;;;;;;;4.73;4.30;;;12.10;99.90;;;;;;5206035;28;20237;-44
2023/06/14 02:55:52;;;;;;;10.67;5.10;;;12.10;99.90;;;;;;5201170;28;20211;-45
2023/06/14 02:58:24;;;;;;;7.00;4.93;;;12.00;99.90;;;;;;5185215;28;20484;-44
2023/06/14 03:00:55;;;;;;;6.00;5.17;;;12.10;99.90;;;;;;5188290;28;20434;-44
2023/06/14 03:03:28;;;;;;;6.27;5.70;;;12.00;99.90;;;;;;5185875;28;20446;-43
2023/06/14 03:06:04;;;;;;;6.13;4.97;;;12.00;99.90;;;;;;5186575;28;20211;-42
2023/06/14 03:08:38;;;;;;;6.73;5.17;;;12.00;99.90;;;;;;5203988;28;20488;-42
2023/06/14 03:11:09;;;;;;;6.50;5.40;;;12.00;99.90;;;;;;5185226;28;20426;-43
2023/06/14 03:13:40;;;;;;;6.13;4.87;;;12.00;99.90;;;;;;5205891;28;20555;-42
2023/06/14 03:16:11;;;;;;;5.23;4.83;;;12.00;99.90;;;;;;5187047;28;20237;-42
2023/06/14 03:18:41;;;;;;;6.37;5.30;;;12.00;99.90;;;;;;5187756;28;20438;-44
2023/06/14 03:21:12;;;;;;;5.80;5.30;;;12.00;99.90;;;;;;5204895;28;20187;-43
2023/06/14 03:23:43;;;;;;;9.90;4.97;;;12.00;99.90;;;;;;5181054;28;20176;-43
2023/06/14 03:26:17;;;;;;;6.37;5.20;;;11.90;99.90;;;;;;5209456;28;20286;-43
2023/06/14 03:28:49;;;;;;;10.70;5.47;;;12.00;99.90;;;;;;5188799;28;20526;-43
2023/06/14 03:31:21;;;;;;;7.43;5.90;;;11.90;99.90;;;;;;5188948;28;20445;-43
2023/06/14 03:33:51;;;;;;;5.77;5.17;;;11.90;99.90;;;;;;5187810;28;20434;-43
2023/06/14 03:36:22;;;;;;;6.73;5.93;;;12.00;99.90;;;;;;5185511;28;20485;-44
2023/06/14 03:38:53;;;;;;;9.53;5.63;;;12.00;99.90;;;;;;5209665;28;20203;-43
2023/06/14 03:41:23;;;;;;;9.93;6.07;;;12.00;99.90;;;;;;5201700;28;20203;-44
2023/06/14 03:43:54;;;;;;;7.73;5.77;;;12.00;99.90;;;;;;5206897;28;20191;-43
2023/06/14 03:46:25;;;;;;;5.07;4.67;;;12.10;99.90;;;;;;5186688;28;20240;-50
2023/06/14 03:48:55;;;;;;;7.50;5.63;;;12.10;99.90;;;;;;5191637;28;20219;-44
2023/06/14 03:51:26;;;;;;;9.50;6.57;;;12.20;99.90;;;;;;5189384;28;20192;-43
2023/06/14 03:53:56;;;;;;;11.30;6.17;;;12.20;99.90;;;;;;5209869;28;20184;-42
2023/06/14 03:56:27;;;;;;;12.70;6.50;;;12.30;99.90;;;;;;5205101;28;20217;-42
2023/06/14 03:58:58;;;;;;;6.67;6.00;;;12.40;99.90;;;;;;5198490;28;20183;-43
2023/06/14 04:01:29;;;;;;;7.17;4.80;;;12.60;99.90;;;;;;5196859;28;20219;-44
2023/06/14 04:04:00;;;;;;;6.27;4.90;;;12.80;99.90;;;;;;5192156;28;20202;-42
2023/06/14 04:06:34;;;;;;;6.20;5.50;;;13.00;99.90;;;;;;5209894;28;20494;-41
2023/06/14 04:09:05;;;;;;;6.27;5.60;;;13.20;99.90;;;;;;5197765;28;20445;-46
2023/06/14 04:11:35;;;;;;;5.37;4.87;;;13.40;99.90;;;;;;5208828;28;20967;-42
2023/06/14 04:14:06;;;;;;;7.73;4.70;;;13.40;99.90;;;;;;5207784;28;20208;-43
2023/06/14 04:16:37;;;;;;;5.33;4.90;;;13.50;99.90;;;;;;5208019;28;20632;-42
2023/06/14 04:19:07;;;;;;;6.77;5.00;;;13.60;99.90;;;;;;5209599;28;20200;-45
2023/06/14 04:21:38;;;;;;;6.23;5.30;;;13.70;99.90;;;;;;5179277;28;20198;-42
2023/06/14 04:24:13;;;;;;;8.53;5.50;;;13.70;99.90;;;;;;5211037;28;20207;-42
2023/06/14 04:26:44;;;;;;;19.50;5.83;;;13.90;99.90;;;;;;5192769;28;20217;-42
2023/06/14 04:29:16;;;;;;;5.73;5.13;;;14.10;99.90;;;;;;5192466;28;20918;-43
2023/06/14 04:31:46;;;;;;;5.30;4.80;;;14.20;99.90;;;;;;5191937;28;20434;-46
2023/06/14 04:34:17;;;;;;;6.67;5.00;;;14.40;99.90;;;;;;5205270;28;20506;-42
2023/06/14 04:36:52;;;;;;;6.30;4.00;;;14.70;99.90;;;;;;5199652;28;20219;-45
2023/06/14 04:39:23;;;;;;;5.37;4.60;;;14.80;99.90;;;;;;5204567;28;20656;-43
2023/06/14 04:41:56;;;;;;;5.83;4.70;;;15.10;99.90;;;;;;5196585;28;20481;-44
2023/06/14 04:44:31;;;;;;;7.00;5.20;;;15.30;99.90;;;;;;5213848;28;20202;-43
2023/06/14 04:47:02;;;;;;;5.80;4.70;;;15.60;99.90;;;;;;5189512;28;20461;-43
2023/06/14 04:49:33;;;;;;;5.53;5.10;;;15.70;99.90;;;;;;5183343;28;20948;-43
2023/06/14 04:52:04;;;;;;;6.07;5.53;;;16.00;99.90;;;;;;5196770;28;20188;-44
2023/06/14 04:54:38;;;;;;;5.77;5.27;;;16.20;99.90;;;;;;5208189;28;20435;-43
2023/06/14 04:57:13;;;;;;;10.97;6.03;;;16.50;99.90;;;;;;5211594;28;20686;-41
2023/06/14 04:59:44;;;;;;;5.80;4.93;;;17.10;99.90;;;;;;5216165;28;20440;-42
2023/06/14 05:02:15;;;;;;;11.63;5.23;;;17.90;99.90;;;;;;5211640;28;20461;-43
2023/06/14 05:04:47;;;;;;;4.73;4.33;;;18.80;99.90;;;;;;5209949;28;20180;-42
2023/06/14 05:07:18;;;;;;;8.10;4.77;;;19.70;99.90;;;;;;5210600;28;20198;-41
2023/06/14 05:09:48;;;;;;;5.47;4.97;;;20.40;94.60;;;;;;5210625;28;22328;-42
2023/06/14 05:12:19;;;;;;;8.00;4.20;;;19.70;93.60;;;;;;5209615;28;20259;-43
2023/06/14 05:14:50;;;;;;;6.20;5.20;;;18.40;96.50;;;;;;5193859;28;20229;-42
2023/06/14 05:17:21;;;;;;;8.83;5.40;;;17.60;99.30;;;;;;5209043;28;20195;-43
2023/06/14 05:19:51;;;;;;;5.63;5.10;;;16.90;99.90;;;;;;5207205;28;20514;-43
2023/06/14 05:22:22;;;;;;;5.23;4.13;;;16.40;99.90;;;;;;5208864;28;20180;-43
2023/06/14 05:24:53;;;;;;;5.07;4.63;;;16.20;99.90;;;;;;5209984;28;20208;-41
2023/06/14 05:27:24;;;;;;;6.83;5.23;;;16.10;99.90;;;;;;5195519;28;20458;-42
2023/06/14 05:29:58;;;;;;;7.17;4.90;;;16.10;99.90;;;;;;5195326;28;20175;-43
2023/06/14 05:32:29;;;;;;;9.37;5.50;;;16.10;99.90;;;;;;5211661;28;20810;-43
2023/06/14 05:34:59;;;;;;;12.73;5.57;;;16.00;99.90;;;;;;5213125;28;20453;-42
2023/06/14 05:37:30;;;;;;;8.77;5.27;;;16.00;99.90;;;;;;5194843;28;20226;-43
2023/06/14 05:40:04;;;;;;;6.57;5.90;;;16.00;99.90;;;;;;5192642;28;20402;-42
2023/06/14 05:42:35;;;;;;;6.83;6.10;;;16.10;99.90;;;;;;5205716;28;20230;-42
2023/06/14 05:45:06;;;;;;;10.30;6.73;;;16.00;99.90;;;;;;5186329;28;20467;-43
2023/06/14 05:47:36;;;;;;;6.37;5.73;;;16.00;99.90;;;;;;5207464;28;20199;-43
2023/06/14 05:50:08;;;;;;;7.07;6.37;;;15.90;99.90;;;;;;5209156;28;20439;-42
2023/06/14 05:52:38;;;;;;;7.47;5.20;;;15.90;99.90;;;;;;5209288;28;20557;-43
2023/06/14 05:55:11;;;;;;;9.77;5.67;;;15.90;99.90;;;;;;5211308;28;20428;-43
2023/06/14 05:57:42;;;;;;;7.20;6.10;;;15.90;99.90;;;;;;5212805;28;20200;-42
2023/06/14 06:00:15;;;;;;;9.50;5.97;;;16.00;99.90;;;;;;5208876;28;20747;-44
2023/06/14 06:02:47;;;;;;;7.43;5.80;;;15.90;99.90;;;;;;5191389;28;20222;-44
2023/06/14 06:05:18;;;;;;;11.83;5.23;;;15.80;99.90;;;;;;5199642;28;20476;-43
2023/06/14 06:07:49;;;;;;;5.70;5.20;;;15.70;99.90;;;;;;5207609;28;20449;-43
2023/06/14 06:10:19;;;;;;;7.20;5.10;;;15.60;99.90;;;;;;5174167;28;20180;-42
2023/06/14 06:12:51;;;;;;;7.70;6.03;;;15.60;99.90;;;;;;5198167;28;20438;-41
2023/06/14 06:15:22;;;;;;;11.83;5.80;;;15.50;99.90;;;;;;5208893;28;20622;-42
2023/06/14 06:17:53;;;;;;;5.10;4.70;;;15.50;99.90;;;;;;5201251;28;20532;-42
2023/06/14 06:20:28;;;;;;;6.60;4.90;;;15.40;99.90;;;;;;5173888;28;20203;-43
2023/06/14 06:22:59;;;;;;;6.20;5.67;;;15.50;99.90;;;;;;5206484;28;20179;-42
2023/06/14 06:25:31;;;;;;;5.30;4.90;;;15.60;99.90;;;;;;5194965;28;20511;-42
2023/06/14 06:28:02;;;;;;;5.10;4.40;;;15.70;99.90;;;;;;5200905;28;20196;-43
2023/06/14 06:30:32;;;;;;;5.10;4.70;;;15.80;99.90;;;;;;5194859;28;20894;-44
2023/06/14 06:33:03;;;;;;;4.77;4.37;;;15.80;99.90;;;;;;5205870;28;20183;-42
2023/06/14 06:35:34;;;;;;;8.10;4.80;;;15.70;99.90;;;;;;5205877;28;20678;-42
2023/06/14 06:38:05;;;;;;;5.60;5.07;;;15.70;99.90;;;;;;5201948;28;20237;-43
2023/06/14 06:40:36;;;;;;;6.97;5.20;;;15.70;99.90;;;;;;5190696;28;20659;-43
2023/06/14 06:43:06;;;;;;;8.70;4.47;;;15.70;99.90;;;;;;5191136;28;20215;-44
2023/06/14 06:45:37;;;;;;;9.03;5.27;;;15.70;99.90;;;;;;5206412;28;21005;-42
2023/06/14 06:48:10;;;;;;;6.30;4.37;;;15.70;99.90;;;;;;5194872;28;20207;-43
2023/06/14 06:50:40;;;;;;;5.23;4.67;;;15.90;99.90;;;;;;5195773;28;20207;-42
2023/06/14 06:53:11;;;;;;;6.17;4.60;;;16.10;99.90;;;;;;5201268;28;20435;-43
2023/06/14 06:55:41;;;;;;;7.37;5.60;;;16.30;99.90;;;;;;5201382;28;20269;-42
2023/06/14 06:58:13;;;;;;;12.13;4.80;;;16.30;99.90;;;;;;5208341;28;20234;-41
2023/06/14 07:00:44;;;;;;;10.43;4.77;;;16.50;99.90;;;;;;5207863;28;20183;-46
2023/06/14 07:03:15;;;;;;;9.17;4.40;;;16.70;99.90;;;;;;5215592;28;20457;-43
2023/06/14 07:05:45;;;;;;;4.17;3.97;;;16.90;99.90;;;;;;5212451;28;20606;-42
2023/06/14 07:08:16;;;;;;;5.87;4.50;;;17.00;99.90;;;;;;5206466;28;20231;-43
2023/06/14 07:10:46;;;;;;;9.13;5.10;;;17.00;99.90;;;;;;5194842;28;20187;-43
2023/06/14 07:13:17;;;;;;;5.23;4.73;;;16.90;99.90;;;;;;5195048;28;20189;-42
2023/06/14 07:15:48;;;;;;;4.93;4.53;;;16.70;99.90;;;;;;5205046;28;20195;-42
2023/06/14 07:18:18;;;;;;;4.10;3.80;;;16.70;99.90;;;;;;5175993;28;20731;-43
2023/06/14 07:20:50;;;;;;;5.50;4.00;;;16.70;99.90;;;;;;5206238;28;20250;-42
2023/06/14 07:23:20;;;;;;;5.43;4.20;;;16.80;99.90;;;;;;5200246;28;20266;-42
2023/06/14 07:25:51;;;;;;;5.60;3.90;;;16.90;99.90;;;;;;5191273;28;20893;-42
2023/06/14 07:28:22;;;;;;;7.93;4.50;;;17.10;99.90;;;;;;5186522;28;20583;-42
2023/06/14 07:30:53;;;;;;;6.20;4.47;;;17.30;99.90;;;;;;5197110;28;20414;-42
2023/06/14 07:33:23;;;;;;;7.00;4.50;;;17.50;99.90;;;;;;5201715;28;20211;-42
2023/06/14 07:35:54;;;;;;;4.33;3.60;;;17.80;99.90;;;;;;5196819;28;20250;-42
2023/06/14 07:38:24;;;;;;;11.03;3.77;;;18.20;99.90;;;;;;5208481;28;20230;-42
2023/06/14 07:40:55;;;;;;;8.70;4.40;;;19.00;99.90;;;;;;5206035;28;20202;-42
2023/06/14 07:43:26;;;;;;;6.27;3.93;;;19.90;99.90;;;;;;5204829;28;20541;-42
2023/06/14 07:45:56;;;;;;;5.47;3.93;;;20.70;98.50;;;;;;5207584;28;20242;-41
2023/06/14 07:48:27;;;;;;;28.73;4.30;;;21.30;95.00;;;;;;5206552;28;20212;-45
2023/06/14 07:50:58;;;;;;;8.00;4.30;;;21.70;92.30;;;;;;5175223;28;20636;-42
2023/06/14 07:53:30;;;;;;;4.70;4.30;;;22.10;89.30;;;;;;5188428;28;20180;-41
2023/06/14 07:56:02;;;;;;;10.40;4.40;;;23.10;82.60;;;;;;5199780;28;20180;-42
2023/06/14 07:58:33;;;;;;;5.07;4.53;;;23.60;73.70;;;;;;5190443;28;20439;-42
2023/06/14 08:01:06;;;;;;;6.13;4.03;;;23.50;69.80;;;;;;5207625;28;20906;-43
2023/06/14 08:03:36;;;;;;;8.20;3.70;;;23.00;70.00;;;;;;5206284;28;20632;-43
2023/06/14 08:06:07;;;;;;;3.13;2.93;;;23.60;68.70;;;;;;5202813;28;20466;-43
2023/06/14 08:08:38;;;;;;;4.97;4.30;;;24.90;67.60;;;;;;5178630;28;20187;-42
2023/06/14 08:11:09;;;;;;;8.73;3.93;;;26.70;57.80;;;;;;5202235;28;20449;-42
2023/06/14 08:13:39;;;;;;;6.00;3.70;;;27.30;52.50;;;;;;5207114;28;20238;-42
2023/06/14 08:16:10;;;;;;;3.30;3.10;;;26.30;52.50;;;;;;5210890;28;20268;-42
2023/06/14 08:18:41;;;;;;;7.53;4.37;;;25.60;54.30;;;;;;5201745;28;20597;-43
2023/06/14 08:21:12;;;;;;;8.47;3.83;;;24.90;54.90;;;;;;5204792;28;20219;-43
2023/06/14 08:23:43;;;;;;;5.70;3.77;;;24.30;55.30;;;;;;5191504;28;20291;-42
2023/06/14 08:26:15;;;;;;;5.90;3.30;;;24.00;56.10;;;;;;5180839;28;20545;-42
2023/06/14 08:28:46;;;;;;;3.60;3.40;;;23.90;57.80;;;;;;5190801;28;20207;-43
2023/06/14 08:31:16;;;;;;;15.50;4.00;;;25.20;55.90;;;;;;5188230;28;20804;-43
2023/06/14 08:33:47;;;;;;;8.17;3.67;;;26.80;51.90;;;;;;5192688;28;20492;-41
2023/06/14 08:36:17;;;;;;;3.70;3.40;;;27.70;47.90;;;;;;5192023;28;20275;-42
2023/06/14 08:38:48;;;;;;;6.53;3.40;;;27.70;46.60;;;;;;5192422;28;20202;-43
2023/06/14 08:41:25;;;;;;;5.80;3.80;;;26.90;47.80;;;;;;5199298;28;20259;-42
2023/06/14 08:43:57;;;;;;;3.57;3.27;;;26.30;49.20;;;;;;5183783;28;20210;-42
2023/06/14 08:46:32;;;;;;;3.17;2.97;;;26.30;48.70;;;;;;5204378;28;20476;-42
2023/06/14 08:49:06;;;;;;;6.50;3.67;;;25.60;49.60;;;;;;5190528;28;20441;-42
2023/06/14 08:51:37;;;;;;;4.37;3.20;;;24.30;51.60;;;;;;5196954;28;20564;-42
2023/06/14 08:54:09;;;;;;;3.70;3.10;;;23.30;53.70;;;;;;5186665;28;20453;-42
2023/06/14 08:56:41;;;;;;;2.87;2.77;;;22.70;54.40;;;;;;5203710;28;20492;-42
2023/06/14 08:59:13;;;;;;;5.83;3.27;;;22.00;56.30;;;;;;5191542;28;20438;-42
2023/06/14 09:01:45;;;;;;;8.87;3.43;;;21.60;56.60;;;;;;5188622;28;20505;-41
2023/06/14 09:04:15;;;;;;;7.60;3.73;;;21.40;56.80;;;;;;5203181;28;20422;-42
2023/06/14 09:06:46;;;;;;;5.23;2.40;;;21.30;57.40;;;;;;5160271;28;20472;-42
2023/06/14 09:09:17;;;;;;;2.80;2.60;;;21.40;57.40;;;;;;5196574;28;20192;-42
2023/06/14 09:11:49;;;;;;;4.33;3.93;;;21.70;57.30;;;;;;5204427;28;20168;-43
2023/06/14 09:14:20;;;;;;;3.00;2.60;;;21.80;57.20;;;;;;5204007;28;20184;-45
2023/06/14 09:16:57;;;;;;;3.90;2.70;;;22.20;56.80;;;;;;5199213;28;20455;-42
2023/06/14 09:19:28;;;;;;;2.93;2.80;;;22.40;56.50;;;;;;5187042;28;20207;-41
2023/06/14 09:22:00;;;;;;;4.60;3.50;;;22.70;55.90;;;;;;5201715;28;20517;-44
2023/06/14 09:24:30;;;;;;;3.67;2.83;;;22.70;55.20;;;;;;5189445;28;20421;-41
2023/06/14 09:27:01;;;;;;;5.03;2.97;;;22.10;55.40;;;;;;5210123;28;20973;-42
2023/06/14 09:29:32;;;;;;;5.40;3.33;;;21.70;56.90;;;;;;5207819;28;20599;-43
2023/06/14 09:32:03;;;;;;;9.70;3.37;;;21.50;57.60;;;;;;5190318;28;20180;-43
2023/06/14 09:34:34;;;;;;;3.70;3.03;;;21.50;58.20;;;;;;5190711;28;20180;-43
2023/06/14 09:37:06;;;;;;;14.87;3.77;;;21.70;58.90;;;;;;5206644;28;20512;-43
2023/06/14 09:39:49;;;;;;;3.20;3.00;;;22.10;58.10;;;;;;5195524;28;20418;-43
2023/06/14 09:42:20;;;;;;;4.07;3.20;;;22.20;57.30;;;;;;5185970;28;20438;-43
2023/06/14 09:44:52;;;;;;;7.63;3.27;;;22.20;57.40;;;;;;5194649;28;20434;-43
2023/06/14 09:47:24;;;;;;;8.13;3.70;;;22.10;57.30;;;;;;5205198;28;20200;-43
2023/06/14 09:49:55;;;;;;;8.27;3.53;;;21.90;56.80;;;;;;5207812;28;20418;-41
2023/06/14 09:52:28;;;;;;;3.70;3.40;;;21.80;57.60;;;;;;5187960;28;20438;-42
2023/06/14 09:55:00;;;;;;;4.23;3.83;;;21.80;57.00;;;;;;5214576;28;20501;-42
2023/06/14 09:57:33;;;;;;;2.90;2.70;;;21.80;57.50;;;;;;5195258;28;20897;-42
2023/06/14 10:00:09;;;;;;;6.73;3.30;;;21.80;56.80;;;;;;5208533;28;20431;-43
2023/06/14 10:02:42;;;;;;;8.03;3.90;;;21.50;57.00;;;;;;5191747;28;20430;-42
2023/06/14 10:05:15;;;;;;;5.13;3.20;;;21.40;57.90;;;;;;5190678;28;20529;-43
2023/06/14 10:07:59;;;;;;;10.27;3.40;;;21.50;57.50;;;;;;5204066;28;20462;-43
2023/06/14 10:10:30;;;;;;;7.63;3.50;;;21.60;57.80;;;;;;5183642;28;20498;-42
2023/06/14 10:13:01;;;;;;;6.30;4.20;;;21.60;57.60;;;;;;5189170;28;20423;-44
2023/06/14 10:16:09;;;;;;;3.83;3.53;;;21.50;58.10;;;;;;5195046;28;20505;-42
2023/06/14 10:18:52;;;;;;;4.93;3.50;;;21.20;58.10;;;;;;5187556;28;20179;-42
2023/06/14 10:21:50;;;;;;;2.70;2.50;;;21.00;59.20;;;;;;5204251;28;20917;-44
2023/06/14 10:24:38;;;;;;;10.57;2.87;;;21.20;58.60;;;;;;5205616;28;20437;-42
2023/06/14 10:27:10;;;;;;;3.57;2.60;;;21.40;58.40;;;;;;5210829;28;20915;-42
2023/06/14 10:29:52;;;;;;;7.90;3.50;;;21.50;58.70;;;;;;5202749;28;20427;-42
2023/06/14 10:32:25;;;;;;;3.17;3.00;;;21.80;58.30;;;;;;5192260;28;20487;-42
2023/06/14 10:34:59;;;;;;;3.50;3.00;;;22.00;57.90;;;;;;5207627;28;20565;-43
2023/06/14 10:37:29;;;;;;;3.70;3.40;;;22.30;55.90;;;;;;5192672;28;20465;-44
2023/06/14 10:40:00;;;;;;;6.60;3.70;;;22.30;56.20;;;;;;5203965;28;20430;-44
2023/06/14 10:42:34;;;;;;;5.87;3.77;;;22.10;56.10;;;;;;5200845;28;20215;-44
2023/06/14 10:45:05;;;;;;;6.07;3.10;;;21.70;56.40;;;;;;5196892;28;20207;-44
2023/06/14 10:47:37;;;;;;;6.13;3.83;;;21.60;56.80;;;;;;5188799;28;20532;-44
2023/06/14 10:50:10;;;;;;;4.37;3.53;;;21.70;56.90;;;;;;5206330;28;20437;-44
2023/06/14 10:52:43;;;;;;;3.90;3.27;;;22.10;56.70;;;;;;5186725;28;20947;-45
2023/06/14 10:55:16;;;;;;;7.33;3.37;;;22.50;54.90;;;;;;5205581;28;20418;-44
2023/06/14 10:57:51;;;;;;;5.67;3.43;;;22.60;54.10;;;;;;5199949;28;20457;-45
2023/06/14 11:00:25;;;;;;;7.13;3.37;;;22.50;53.90;;;;;;5199428;28;20602;-44
2023/06/14 11:03:33;;;;;;;9.87;3.53;;;22.70;53.80;;;;;;5200238;28;20504;-44
2023/06/14 11:06:13;;;;;;;15.13;4.10;;;23.00;53.70;;;;;;5175892;28;20478;-44
2023/06/14 11:09:14;;;;;;;3.93;3.50;;;22.40;54.30;;;;;;5205618;28;20727;-44
2023/06/14 11:11:47;;;;;;;4.50;3.23;;;22.40;54.80;;;;;;5189851;28;20827;-44
2023/06/14 11:14:17;;;;;;;3.43;2.80;;;22.60;53.70;;;;;;5192303;28;20803;-45
2023/06/14 11:16:49;;;;;;;6.07;3.37;;;22.50;53.30;;;;;;5203800;28;20482;-44
2023/06/14 11:19:21;;;;;;;5.50;3.90;;;22.40;53.20;;;;;;5203332;28;20255;-44
2023/06/14 11:21:52;;;;;;;3.53;3.20;;;22.40;53.60;;;;;;5174686;28;20863;-44
2023/06/14 11:24:23;;;;;;;3.70;3.40;;;22.40;52.60;;;;;;5191013;28;20509;-43
2023/06/14 11:26:57;;;;;;;2.97;2.73;;;22.30;52.80;;;;;;5203716;28;20296;-45
2023/06/14 11:29:29;;;;;;;7.27;2.90;;;22.20;52.90;;;;;;5202934;28;20179;-45
2023/06/14 11:32:00;;;;;;;5.07;2.77;;;22.20;51.60;;;;;;5179097;28;20514;-44
2023/06/14 11:34:31;;;;;;;3.43;3.13;;;22.10;52.00;;;;;;5186516;28;20438;-45
2023/06/14 11:37:01;;;;;;;3.10;2.70;;;22.10;52.20;;;;;;5192158;28;20979;-46
2023/06/14 11:39:32;;;;;;;5.10;3.10;;;22.10;52.40;;;;;;5177435;28;20191;-45
2023/06/14 11:42:03;;;;;;;4.10;3.17;;;22.40;52.40;;;;;;5176410;28;20330;-44
2023/06/14 11:44:35;;;;;;;5.33;3.20;;;22.50;51.50;;;;;;5204327;28;20184;-43
2023/06/14 11:47:06;;;;;;;6.23;2.73;;;22.60;51.00;;;;;;5202794;28;21014;-44
2023/06/14 11:49:36;;;;;;;4.77;2.97;;;22.70;51.00;;;;;;5208718;28;20548;-45
2023/06/14 11:52:08;;;;;;;4.43;2.90;;;22.70;51.40;;;;;;5198422;28;20469;-45
2023/06/14 11:54:40;;;;;;;10.23;2.97;;;22.80;50.80;;;;;;5199991;28;20186;-45
2023/06/14 11:57:11;;;;;;;5.73;3.50;;;22.90;51.40;;;;;;5197317;28;20468;-45
2023/06/14 11:59:43;;;;;;;3.00;2.80;;;22.90;50.60;;;;;;5200280;28;20439;-45
2023/06/14 12:02:15;;;;;;;7.10;2.90;;;22.70;50.30;;;;;;5204884;28;20183;-44
2023/06/14 12:04:48;;;;;;;4.50;2.70;;;22.60;50.30;;;;;;5202408;28;20435;-45
2023/06/14 12:07:23;;;;;;;9.20;3.00;;;22.30;49.10;;;;;;5205627;28;20446;-45
2023/06/14 12:09:53;;;;;;;3.47;3.17;;;22.20;49.80;;;;;;5192628;28;20431;-44
2023/06/14 12:12:25;;;;;;;7.47;3.20;;;22.20;49.70;;;;;;5201094;28;20434;-44
2023/06/14 12:14:56;;;;;;;5.17;3.07;;;22.10;49.60;;;;;;5197682;28;20177;-46
2023/06/14 12:17:32;;;;;;;4.03;3.13;;;22.10;49.10;;;;;;5184735;28;20447;-44
2023/06/14 12:20:10;;;;;;;3.03;2.30;;;22.20;49.10;;;;;;5203400;28;20187;-44
2023/06/14 12:22:56;;;;;;;5.30;2.70;;;22.30;47.90;;;;;;5187139;28;20426;-44
2023/06/14 12:25:35;;;;;;;14.20;2.90;;;22.30;46.70;;;;;;5189096;28;21055;-44
2023/06/14 12:28:07;;;;;;;5.03;2.73;;;22.30;46.30;;;;;;5205868;28;20989;-44
2023/06/14 12:30:39;;;;;;;11.40;4.33;;;22.30;47.10;;;;;;5201515;28;20831;-44
2023/06/14 12:33:11;;;;;;;2.47;2.27;;;22.40;47.00;;;;;;5199017;28;20427;-44
2023/06/14 12:35:41;;;;;;;6.80;3.13;;;22.50;46.30;;;;;;5211758;28;20426;-44
2023/06/14 12:38:12;;;;;;;3.90;3.17;;;22.60;46.50;;;;;;5188297;28;20552;-44
2023/06/14 12:40:43;;;;;;;3.43;2.93;;;22.70;46.30;;;;;;5214265;28;20190;-43
2023/06/14 12:43:13;;;;;;;5.30;3.17;;;22.70;46.10;;;;;;5208287;28;20285;-46
2023/06/14 12:45:44;;;;;;;4.30;2.77;;;22.70;46.10;;;;;;5203659;28;20207;-44
2023/06/14 12:48:15;;;;;;;4.80;2.60;;;22.70;45.50;;;;;;5193651;28;20777;-45
2023/06/14 12:50:46;;;;;;;3.00;2.80;;;22.90;45.10;;;;;;5193062;28;20257;-44
2023/06/14 12:53:17;;;;;;;2.70;2.50;;;23.00;44.80;;;;;;5204332;28;20554;-45
2023/06/14 12:55:47;;;;;;;4.80;2.20;;;23.00;45.30;;;;;;5209387;28;20522;-44
2023/06/14 12:58:19;;;;;;;7.60;2.60;;;23.10;45.30;;;;;;5208326;28;20196;-45
2023/06/14 13:00:50;;;;;;;29.77;2.60;;;23.20;45.10;;;;;;5184562;28;20197;-43
2023/06/14 13:03:21;;;;;;;3.80;2.97;;;23.40;44.30;;;;;;5204001;28;20445;-45
2023/06/14 13:05:51;;;;;;;3.80;3.17;;;23.40;44.70;;;;;;5200013;28;20283;-45
2023/06/14 13:08:22;;;;;;;6.97;3.33;;;23.70;44.20;;;;;;5190908;28;20208;-46
2023/06/14 13:10:53;;;;;;;5.90;3.57;;;23.60;43.90;;;;;;5201765;28;20624;-44